PWSweather.com
Personal Weather Stations
Station Observations

LignerollesTF

Lat: 46.292342, Lon: 2.589435

Elevation: 1014

Station Type: la crosse WS 2801 IT

http://lignerolles.monespace.net/meteo_lignerolles/index.php

Latest ConditionsUpdated 1:00:01 PM GMT+01:01 Friday, Jun 23, 2017
Currently Today's Max Today's Min Today's Average
Temperature 75.1°F23.9°C 75.9°F24.4°C 66.4°F19.1°C 70.5°F21.4°C
Dew Point 65.1°F18.4°C 65.8°F18.8°C 58.6°F14.8°C 61.6°F16.4°C
Winds 6.9 mph SW11.1 kmh SW 11.5 mph SW18.5 kmh SW - 5.0 mph 8.0 kmh
Wind Gusts 6.9 mph11.1 kmh 11.5 mph18.5 kmh - -
Humidity 71% 76% 70% 74%
Pressure 30.12 in1020.0 mb 30.12 in1020.0 mb 30.02 in1016.6 mb -
Hour Temp Dew Point Humidity Winds Wind Gusts Pressure Precip Precip Rate Daily Precip Total
01:00 PM 75.1°F23.9°C 65.1°F18.4°C 71% 6.9 mph SW11.1 kmh SW 6.9 mph11.1 kmh 30.12 in1020.0 mb - 0.00 in0.0 mm 0.00 in0.0 mm
12:50 PM 75.4°F24.1°C 65.3°F18.5°C 71% 6.9 mph WSW11.1 kmh WSW 8.1 mph13.0 kmh 30.12 in1020.0 mb - 0.00 in0.0 mm 0.00 in0.0 mm
12:40 PM 75.4°F24.1°C 65.3°F18.5°C 71% 8.1 mph SW13.0 kmh SW 9.2 mph14.8 kmh 30.12 in1020.0 mb - 0.00 in0.0 mm 0.00 in0.0 mm
12:30 PM 75.2°F24.0°C 65.1°F18.4°C 71% 8.1 mph WSW13.0 kmh WSW 9.2 mph14.8 kmh 30.12 in1020.0 mb - 0.00 in0.0 mm 0.00 in0.0 mm
12:20 PM 75.2°F24.0°C 65.1°F18.4°C 71% 9.2 mph WSW14.8 kmh WSW 11.5 mph18.5 kmh 30.12 in1020.0 mb - 0.00 in0.0 mm 0.00 in0.0 mm
12:10 PM 75.6°F24.2°C 65.5°F18.6°C 71% 5.8 mph SW9.3 kmh SW 9.2 mph14.8 kmh 30.12 in1020.0 mb - 0.00 in0.0 mm 0.00 in0.0 mm
12:00 PM 75.9°F24.4°C 65.8°F18.8°C 71% 6.9 mph SW11.1 kmh SW 8.1 mph13.0 kmh 30.12 in1020.0 mb - 0.00 in0.0 mm 0.00 in0.0 mm
11:50 AM 75.6°F24.2°C 65.5°F18.6°C 71% 6.9 mph SW11.1 kmh SW 6.9 mph11.1 kmh 30.12 in1020.0 mb - 0.00 in0.0 mm 0.00 in0.0 mm
11:40 AM 75.0°F23.9°C 65.4°F18.6°C 72% 9.2 mph SW14.8 kmh SW 10.4 mph16.7 kmh 30.11 in1019.6 mb - 0.00 in0.0 mm 0.00 in0.0 mm
11:30 AM 74.4°F23.6°C 64.8°F18.2°C 72% 11.5 mph SW18.5 kmh SW 11.5 mph18.5 kmh 30.11 in1019.6 mb - 0.00 in0.0 mm 0.00 in0.0 mm
11:20 AM 74.5°F23.6°C 65.3°F18.5°C 73% 6.9 mph SW11.1 kmh SW 9.2 mph14.8 kmh 30.11 in1019.6 mb - 0.00 in0.0 mm 0.00 in0.0 mm
11:10 AM 73.9°F23.3°C 64.7°F18.2°C 73% 6.9 mph SW11.1 kmh SW 9.2 mph14.8 kmh 30.11 in1019.6 mb - 0.00 in0.0 mm 0.00 in0.0 mm
11:00 AM 74.4°F23.6°C 64.8°F18.2°C 72% 10.4 mph SW16.7 kmh SW 11.5 mph18.5 kmh 30.11 in1019.6 mb - 0.00 in0.0 mm 0.00 in0.0 mm
10:50 AM 74.8°F23.8°C 65.6°F18.7°C 73% 9.2 mph SW14.8 kmh SW 10.4 mph16.7 kmh 30.11 in1019.6 mb - 0.00 in0.0 mm 0.00 in0.0 mm
10:40 AM 74.1°F23.4°C 65.3°F18.5°C 74% 6.9 mph SW11.1 kmh SW 9.2 mph14.8 kmh 30.11 in1019.6 mb - 0.00 in0.0 mm 0.00 in0.0 mm
10:30 AM 73.6°F23.1°C 65.2°F18.4°C 75% 8.1 mph SW13.0 kmh SW 9.2 mph14.8 kmh 30.11 in1019.6 mb - 0.00 in0.0 mm 0.00 in0.0 mm
10:20 AM 73.0°F22.8°C 64.6°F18.1°C 75% 5.8 mph SW9.3 kmh SW 6.9 mph11.1 kmh 30.11 in1019.6 mb - 0.00 in0.0 mm 0.00 in0.0 mm
10:10 AM 72.7°F22.6°C 64.3°F17.9°C 75% 8.1 mph WSW13.0 kmh WSW 9.2 mph14.8 kmh 30.11 in1019.6 mb - 0.00 in0.0 mm 0.00 in0.0 mm
10:00 AM 72.3°F22.4°C 63.9°F17.7°C 75% 5.8 mph WSW9.3 kmh WSW 6.9 mph11.1 kmh 30.11 in1019.6 mb - 0.00 in0.0 mm 0.00 in0.0 mm
09:50 AM 72.5°F22.5°C 64.1°F17.8°C 75% 6.9 mph SW11.1 kmh SW 6.9 mph11.1 kmh 30.11 in1019.6 mb - 0.00 in0.0 mm 0.00 in0.0 mm
09:40 AM 72.3°F22.4°C 63.9°F17.7°C 75% 8.1 mph SW13.0 kmh SW 8.1 mph13.0 kmh 30.11 in1019.6 mb - 0.00 in0.0 mm 0.00 in0.0 mm
09:30 AM 72.4°F22.4°C 64.0°F17.8°C 75% 8.1 mph WSW13.0 kmh WSW 11.5 mph18.5 kmh 30.11 in1019.6 mb - 0.00 in0.0 mm 0.00 in0.0 mm
09:20 AM 72.5°F22.5°C 64.1°F17.8°C 75% 5.8 mph SW9.3 kmh SW 5.8 mph9.3 kmh 30.11 in1019.6 mb - 0.00 in0.0 mm 0.00 in0.0 mm
09:10 AM 71.9°F22.2°C 63.2°F17.3°C 74% 4.6 mph SW7.4 kmh SW 8.1 mph13.0 kmh 30.11 in1019.6 mb - 0.00 in0.0 mm 0.00 in0.0 mm
09:00 AM 71.6°F22.0°C 63.3°F17.4°C 75% 5.8 mph WSW9.3 kmh WSW 6.9 mph11.1 kmh 30.11 in1019.6 mb - 0.00 in0.0 mm 0.00 in0.0 mm
08:50 AM 70.9°F21.6°C 62.6°F17.0°C 75% 4.6 mph WNW7.4 kmh WNW 4.6 mph7.4 kmh 30.11 in1019.6 mb - 0.00 in0.0 mm 0.00 in0.0 mm
08:40 AM 70.7°F21.5°C 62.0°F16.7°C 74% 6.9 mph SW11.1 kmh SW 6.9 mph11.1 kmh 30.11 in1019.6 mb - 0.00 in0.0 mm 0.00 in0.0 mm
08:30 AM 71.2°F21.8°C 62.5°F16.9°C 74% 4.6 mph WSW7.4 kmh WSW 4.6 mph7.4 kmh 30.11 in1019.6 mb - 0.00 in0.0 mm 0.00 in0.0 mm
08:20 AM 71.6°F22.0°C 62.9°F17.2°C 74% 6.9 mph WSW11.1 kmh WSW 8.1 mph13.0 kmh 30.11 in1019.6 mb - 0.00 in0.0 mm 0.00 in0.0 mm
08:10 AM 70.9°F21.6°C 62.6°F17.0°C 75% 10.4 mph SW16.7 kmh SW 11.5 mph18.5 kmh 30.10 in1019.3 mb - 0.00 in0.0 mm 0.00 in0.0 mm
08:00 AM 70.9°F21.6°C 62.2°F16.8°C 74% 9.2 mph SW14.8 kmh SW 11.5 mph18.5 kmh 30.10 in1019.3 mb - 0.00 in0.0 mm 0.00 in0.0 mm
07:50 AM 70.9°F21.6°C 62.2°F16.8°C 74% 5.8 mph SW9.3 kmh SW 8.1 mph13.0 kmh 30.09 in1019.0 mb - 0.00 in0.0 mm 0.00 in0.0 mm
07:40 AM 71.1°F21.7°C 62.4°F16.9°C 74% 6.9 mph SW11.1 kmh SW 8.1 mph13.0 kmh 30.09 in1019.0 mb - 0.00 in0.0 mm 0.00 in0.0 mm
07:30 AM 70.1°F21.2°C 61.5°F16.4°C 74% 5.8 mph SW9.3 kmh SW 5.8 mph9.3 kmh 30.08 in1018.6 mb - 0.00 in0.0 mm 0.00 in0.0 mm
07:20 AM 69.8°F21.0°C 61.1°F16.2°C 74% 9.2 mph SW14.8 kmh SW 10.4 mph16.7 kmh 30.08 in1018.6 mb - 0.00 in0.0 mm 0.00 in0.0 mm
07:10 AM 70.0°F21.1°C 61.7°F16.5°C 75% 8.1 mph SW13.0 kmh SW 9.2 mph14.8 kmh 30.08 in1018.6 mb - 0.00 in0.0 mm 0.00 in0.0 mm
07:00 AM 69.4°F20.8°C 61.2°F16.2°C 75% 4.6 mph SW7.4 kmh SW 5.8 mph9.3 kmh 30.08 in1018.6 mb - 0.00 in0.0 mm 0.00 in0.0 mm
06:50 AM 68.8°F20.4°C 60.6°F15.9°C 75% 4.6 mph SW7.4 kmh SW 6.9 mph11.1 kmh 30.08 in1018.6 mb - 0.00 in0.0 mm 0.00 in0.0 mm
06:40 AM 68.4°F20.2°C 60.1°F15.6°C 75% 5.8 mph SW9.3 kmh SW 5.8 mph9.3 kmh 30.09 in1019.0 mb - 0.00 in0.0 mm 0.00 in0.0 mm
06:30 AM 68.0°F20.0°C 59.8°F15.4°C 75% 5.8 mph SW9.3 kmh SW 6.9 mph11.1 kmh 30.08 in1018.6 mb - 0.00 in0.0 mm 0.00 in0.0 mm
06:20 AM 67.6°F19.8°C 59.4°F15.2°C 75% 3.5 mph SW5.6 kmh SW 4.6 mph7.4 kmh 30.08 in1018.6 mb - 0.00 in0.0 mm 0.00 in0.0 mm
06:10 AM 67.3°F19.6°C 59.1°F15.1°C 75% 3.5 mph SW5.6 kmh SW 4.6 mph7.4 kmh 30.08 in1018.6 mb - 0.00 in0.0 mm 0.00 in0.0 mm
06:00 AM 66.9°F19.4°C 58.7°F14.8°C 75% 4.6 mph SW7.4 kmh SW 4.6 mph7.4 kmh 30.08 in1018.6 mb - 0.00 in0.0 mm 0.00 in0.0 mm
05:50 AM 66.6°F19.2°C 58.8°F14.9°C 76% 5.8 mph SW9.3 kmh SW 5.8 mph9.3 kmh 30.07 in1018.3 mb - 0.00 in0.0 mm 0.00 in0.0 mm
05:40 AM 66.4°F19.1°C 58.6°F14.8°C 76% 3.5 mph SW5.6 kmh SW 4.6 mph7.4 kmh 30.07 in1018.3 mb - 0.00 in0.0 mm 0.00 in0.0 mm
05:30 AM 66.4°F19.1°C 58.6°F14.8°C 76% 3.5 mph SW5.6 kmh SW 4.6 mph7.4 kmh 30.07 in1018.3 mb - 0.00 in0.0 mm 0.00 in0.0 mm
05:20 AM 66.6°F19.2°C 58.8°F14.9°C 76% 3.5 mph SW5.6 kmh SW 4.6 mph7.4 kmh 30.06 in1017.9 mb - 0.00 in0.0 mm 0.00 in0.0 mm
05:10 AM 66.8°F19.3°C 59.0°F15.0°C 76% 2.3 mph SW3.7 kmh SW 2.3 mph3.7 kmh 30.06 in1017.9 mb - 0.00 in0.0 mm 0.00 in0.0 mm
05:00 AM 66.9°F19.4°C 59.1°F15.1°C 76% 2.3 mph SW3.7 kmh SW 2.3 mph3.7 kmh 30.06 in1017.9 mb - 0.00 in0.0 mm 0.00 in0.0 mm
04:50 AM 67.1°F19.5°C 59.3°F15.2°C 76% 4.6 mph SW7.4 kmh SW 4.6 mph7.4 kmh 30.05 in1017.6 mb - 0.00 in0.0 mm 0.00 in0.0 mm
04:40 AM 67.3°F19.6°C 59.1°F15.1°C 75% 4.6 mph SW7.4 kmh SW 4.6 mph7.4 kmh 30.05 in1017.6 mb - 0.00 in0.0 mm 0.00 in0.0 mm
04:30 AM 67.5°F19.7°C 59.3°F15.2°C 75% 2.3 mph SW3.7 kmh SW 3.5 mph5.6 kmh 30.05 in1017.6 mb - 0.00 in0.0 mm 0.00 in0.0 mm
04:20 AM 67.6°F19.8°C 59.4°F15.2°C 75% 2.3 mph SW3.7 kmh SW 2.3 mph3.7 kmh 30.05 in1017.6 mb - 0.00 in0.0 mm 0.00 in0.0 mm
04:10 AM 67.6°F19.8°C 59.4°F15.2°C 75% 3.5 mph SW5.6 kmh SW 4.6 mph7.4 kmh 30.05 in1017.6 mb - 0.00 in0.0 mm 0.00 in0.0 mm
04:00 AM 67.8°F19.9°C 59.6°F15.3°C 75% 2.3 mph SW3.7 kmh SW 2.3 mph3.7 kmh 30.04 in1017.3 mb - 0.00 in0.0 mm 0.00 in0.0 mm
03:50 AM 67.6°F19.8°C 59.4°F15.2°C 75% 4.6 mph SW7.4 kmh SW 4.6 mph7.4 kmh 30.03 in1016.9 mb - 0.00 in0.0 mm 0.00 in0.0 mm
03:40 AM 67.5°F19.7°C 59.3°F15.2°C 75% 4.6 mph SSW7.4 kmh SSW 4.6 mph7.4 kmh 30.03 in1016.9 mb - 0.00 in0.0 mm 0.00 in0.0 mm
03:30 AM 67.5°F19.7°C 58.9°F14.9°C 74% 2.3 mph SW3.7 kmh SW 2.3 mph3.7 kmh 30.03 in1016.9 mb - 0.00 in0.0 mm 0.00 in0.0 mm
03:20 AM 67.5°F19.7°C 58.9°F14.9°C 74% 2.3 mph SW3.7 kmh SW 2.3 mph3.7 kmh 30.04 in1017.3 mb - 0.00 in0.0 mm 0.00 in0.0 mm
03:10 AM 67.6°F19.8°C 59.1°F15.1°C 74% 2.3 mph SW3.7 kmh SW 1.2 mph1.9 kmh 30.04 in1017.3 mb - 0.00 in0.0 mm 0.00 in0.0 mm
03:00 AM 67.9°F19.9°C 59.3°F15.2°C 74% 2.3 mph SW3.7 kmh SW 2.3 mph3.7 kmh 30.04 in1017.3 mb - 0.00 in0.0 mm 0.00 in0.0 mm
02:50 AM 68.0°F20.0°C 59.4°F15.2°C 74% 1.2 mph SW1.9 kmh SW -- 30.04 in1017.3 mb - 0.00 in0.0 mm 0.00 in0.0 mm
02:40 AM 68.2°F20.1°C 59.2°F15.1°C 73% 2.3 mph SW3.7 kmh SW 2.3 mph3.7 kmh 30.04 in1017.3 mb - 0.00 in0.0 mm 0.00 in0.0 mm
02:30 AM 68.5°F20.3°C 59.5°F15.3°C 73% 2.3 mph SW3.7 kmh SW 2.3 mph3.7 kmh 30.03 in1016.9 mb - 0.00 in0.0 mm 0.00 in0.0 mm
02:20 AM 68.7°F20.4°C 59.7°F15.4°C 73% 1.2 mph WSW1.9 kmh WSW 1.2 mph1.9 kmh 30.03 in1016.9 mb - 0.00 in0.0 mm 0.00 in0.0 mm
02:10 AM 69.1°F20.6°C 59.7°F15.4°C 72% 1.2 mph SW1.9 kmh SW 2.3 mph3.7 kmh 30.03 in1016.9 mb - 0.00 in0.0 mm 0.00 in0.0 mm
02:00 AM 69.4°F20.8°C 60.0°F15.6°C 72% Calm Calm 1.2 mph1.9 kmh 30.04 in1017.3 mb - 0.00 in0.0 mm 0.00 in0.0 mm
01:50 AM 69.6°F20.9°C 60.2°F15.7°C 72% Calm Calm -- 30.03 in1016.9 mb - 0.00 in0.0 mm 0.00 in0.0 mm
01:40 AM 69.4°F20.8°C 60.0°F15.6°C 72% 5.8 mph SW9.3 kmh SW 5.8 mph9.3 kmh 30.03 in1016.9 mb - 0.00 in0.0 mm 0.00 in0.0 mm
01:30 AM 69.6°F20.9°C 59.8°F15.4°C 71% 4.6 mph SSW7.4 kmh SSW 5.8 mph9.3 kmh 30.02 in1016.6 mb - 0.00 in0.0 mm 0.00 in0.0 mm
01:20 AM 70.2°F21.2°C 60.3°F15.7°C 71% 1.2 mph SW1.9 kmh SW 2.3 mph3.7 kmh 30.02 in1016.6 mb - 0.00 in0.0 mm 0.00 in0.0 mm
01:10 AM 70.5°F21.4°C 60.3°F15.7°C 70% 1.2 mph WSW1.9 kmh WSW 1.2 mph1.9 kmh 30.02 in1016.6 mb - 0.00 in0.0 mm 0.00 in0.0 mm
01:00 AM 70.5°F21.4°C 60.7°F15.9°C 71% 3.5 mph SW5.6 kmh SW 4.6 mph7.4 kmh 30.02 in1016.6 mb - 0.00 in0.0 mm 0.00 in0.0 mm
12:50 AM 70.5°F21.4°C 60.7°F15.9°C 71% 3.5 mph SW5.6 kmh SW 3.5 mph5.6 kmh 30.02 in1016.6 mb - 0.00 in0.0 mm 0.00 in0.0 mm
12:40 AM 70.3°F21.3°C 60.9°F16.1°C 72% 4.6 mph SW7.4 kmh SW 4.6 mph7.4 kmh 30.02 in1016.6 mb - 0.00 in0.0 mm 0.00 in0.0 mm
12:30 AM 70.2°F21.2°C 60.7°F15.9°C 72% 4.6 mph SW7.4 kmh SW 5.8 mph9.3 kmh 30.02 in1016.6 mb - 0.00 in0.0 mm 0.00 in0.0 mm
12:20 AM 70.0°F21.1°C 60.5°F15.8°C 72% 2.3 mph SW3.7 kmh SW 2.3 mph3.7 kmh 30.02 in1016.6 mb - 0.00 in0.0 mm 0.00 in0.0 mm
12:10 AM 70.0°F21.1°C 60.5°F15.8°C 72% 2.3 mph SW3.7 kmh SW 2.3 mph3.7 kmh 30.02 in1016.6 mb - 0.00 in0.0 mm 0.00 in0.0 mm
12:00 AM 70.2°F21.2°C 60.8°F16.0°C 72% Calm Calm -- 30.02 in1016.6 mb - 0.00 in0.0 mm 0.00 in0.0 mm